createdAt,value
2022-08-03T00:03:23.754Z,4.75
2022-08-03T00:08:25.342Z,4.57
2022-08-03T00:13:27.622Z,3.28
2022-08-03T00:18:29.123Z,5.55
2022-08-03T00:23:50.914Z,4.55
2022-08-03T00:28:52.366Z,5.47
2022-08-03T00:33:58.311Z,4.38
2022-08-03T00:39:01.881Z,5.10
2022-08-03T00:44:03.726Z,4.85
2022-08-03T00:49:05.275Z,5.15
2022-08-03T00:54:06.988Z,7.22
2022-08-03T00:59:10.309Z,3.60
2022-08-03T01:04:11.911Z,3.78
2022-08-03T01:09:31.145Z,6.72
2022-08-03T01:14:44.736Z,7.38
2022-08-03T01:19:56.292Z,6.35
2022-08-03T01:25:14.578Z,9.32
2022-08-03T01:30:16.534Z,3.47
2022-08-03T01:35:25.041Z,5.00
2022-08-03T01:40:28.666Z,10.95
2022-08-03T01:45:34.135Z,7.18
2022-08-03T01:55:40.054Z,6.03
2022-08-03T02:00:42.807Z,11.93
2022-08-03T02:05:47.191Z,4.53
2022-08-03T02:10:49.934Z,4.78
2022-08-03T02:15:53.237Z,7.72
2022-08-03T02:20:55.895Z,10.27
2022-08-03T02:26:03.279Z,3.53
2022-08-03T02:31:15.521Z,8.98
2022-08-03T02:36:22.288Z,4.25
2022-08-03T02:41:35.609Z,5.22
2022-08-03T02:46:44.603Z,6.53
2022-08-03T02:51:48.419Z,5.43
2022-08-03T02:56:52.292Z,5.55
2022-08-03T03:01:55.043Z,3.28
2022-08-03T03:06:58.126Z,7.05
2022-08-03T03:12:00.351Z,4.03
2022-08-03T03:17:03.269Z,7.38
2022-08-03T03:22:07.010Z,9.80
2022-08-03T03:27:09.101Z,11.45
2022-08-03T03:32:11.023Z,12.35
2022-08-03T03:37:12.625Z,8.00
2022-08-03T03:42:14.672Z,8.13
2022-08-03T03:47:16.685Z,13.68
2022-08-03T03:52:18.335Z,8.10
2022-08-03T03:57:19.877Z,10.73
2022-08-03T04:02:21.451Z,12.07
2022-08-03T04:07:45.940Z,14.68
2022-08-03T04:12:50.899Z,14.70
2022-08-03T04:17:57.112Z,9.95
2022-08-03T04:23:00.507Z,14.45
2022-08-03T04:28:21.026Z,10.30
2022-08-03T04:33:29.608Z,11.35
2022-08-03T04:38:35.681Z,14.07
2022-08-03T04:43:40.738Z,15.50
2022-08-03T04:48:44.710Z,11.63
2022-08-03T04:53:46.727Z,11.05
2022-08-03T04:58:48.408Z,12.25
2022-08-03T05:03:49.990Z,11.55
2022-08-03T05:08:51.718Z,10.63
2022-08-03T05:13:53.360Z,15.98
2022-08-03T05:18:55.068Z,15.75
2022-08-03T05:23:56.575Z,23.10
2022-08-03T05:28:58.096Z,12.85
2022-08-03T05:33:59.647Z,13.38
2022-08-03T05:39:02.899Z,13.55
2022-08-03T05:44:05.372Z,13.70
2022-08-03T05:49:07.024Z,9.25
2022-08-03T05:54:09.561Z,11.50
2022-08-03T05:59:35.850Z,12.65
2022-08-03T06:04:32.722Z,9.75
2022-08-03T06:10:37.132Z,9.90
2022-08-03T06:14:56.707Z,19.45
2022-08-03T06:19:58.285Z,15.85
2022-08-03T06:25:05.030Z,10.43
2022-08-03T06:30:11.265Z,9.38
2022-08-03T06:35:12.807Z,8.80
2022-08-03T06:40:21.900Z,11.18
2022-08-03T06:45:26.279Z,11.20
2022-08-03T06:50:34.845Z,11.00
2022-08-03T06:55:42.289Z,13.15
2022-08-03T07:00:44.096Z,5.78
2022-08-03T07:05:49.169Z,15.35
2022-08-03T07:10:50.660Z,15.82
2022-08-03T07:15:55.616Z,14.20
2022-08-03T07:20:58.790Z,14.23
2022-08-03T07:26:00.534Z,8.65
2022-08-03T07:31:02.026Z,9.77
2022-08-03T07:36:04.167Z,10.23
2022-08-03T07:41:05.711Z,15.70
2022-08-03T07:46:07.204Z,8.20
2022-08-03T07:51:09.006Z,9.10
2022-08-03T07:56:10.798Z,11.57
2022-08-03T08:01:15.219Z,8.52
2022-08-03T08:06:17.972Z,8.93
2022-08-03T08:11:22.309Z,7.00
2022-08-03T08:16:23.816Z,12.85
2022-08-03T08:21:25.421Z,10.23
2022-08-03T08:26:46.919Z,17.35
2022-08-03T08:31:48.968Z,14.32
2022-08-03T08:36:50.511Z,10.55
2022-08-03T08:41:53.360Z,12.65
2022-08-03T08:46:57.093Z,7.95
2022-08-03T08:52:01.805Z,6.13
2022-08-03T08:57:26.794Z,9.55
2022-08-03T09:02:32.008Z,10.35
2022-08-03T09:07:34.094Z,10.13
2022-08-03T09:12:43.777Z,10.40
2022-08-03T09:17:50.718Z,11.35
2022-08-03T09:23:44.611Z,10.82
2022-08-03T09:29:01.491Z,10.02
2022-08-03T09:34:01.338Z,8.35
2022-08-03T09:39:06.696Z,11.38
2022-08-03T09:44:08.901Z,10.50
2022-08-03T09:49:26.695Z,9.63
2022-08-03T09:54:29.845Z,13.18
2022-08-03T09:59:33.318Z,9.30
2022-08-03T10:04:47.447Z,11.90
2022-08-03T10:10:31.691Z,7.95
2022-08-03T10:16:22.134Z,9.60
2022-08-03T10:20:51.756Z,8.05
2022-08-03T10:26:01.943Z,9.50
2022-08-03T10:31:07.930Z,7.82
2022-08-03T10:36:14.169Z,5.57
2022-08-03T10:41:20.008Z,10.02
2022-08-03T10:46:21.705Z,10.25
2022-08-03T10:51:23.772Z,7.55
2022-08-03T10:56:54.320Z,9.23
2022-08-03T11:02:00.420Z,9.13
2022-08-03T11:07:25.133Z,9.30
2022-08-03T11:12:31.250Z,5.85
2022-08-03T11:17:46.378Z,10.45
2022-08-03T11:23:01.134Z,7.05
2022-08-03T11:28:30.889Z,8.05
2022-08-03T11:33:32.598Z,6.28
2022-08-03T11:38:34.376Z,4.90
2022-08-03T11:43:37.495Z,8.17
2022-08-03T11:48:44.918Z,8.00
2022-08-03T11:53:49.240Z,9.10
2022-08-03T11:59:10.686Z,10.73
2022-08-03T12:04:18.061Z,7.95
2022-08-03T12:09:21.142Z,7.90
2022-08-03T12:14:50.040Z,7.18
2022-08-03T12:19:46.779Z,9.65
2022-08-03T12:24:48.369Z,8.93
2022-08-03T12:29:58.327Z,6.07
2022-08-03T12:35:01.852Z,9.35
2022-08-03T12:40:10.511Z,5.93
2022-08-03T12:45:23.320Z,6.70
2022-08-03T12:55:56.529Z,6.20
2022-08-03T13:00:56.094Z,5.82
2022-08-03T13:05:59.190Z,5.95
2022-08-03T13:11:21.619Z,7.35
2022-08-03T13:16:23.555Z,4.47
2022-08-03T13:21:25.257Z,4.00
2022-08-03T13:26:26.918Z,1.90
2022-08-03T13:31:28.532Z,2.50
2022-08-03T13:36:30.584Z,3.35
2022-08-03T13:41:44.573Z,1.23
2022-08-03T13:46:46.793Z,6.15
2022-08-03T13:51:48.439Z,2.10
2022-08-03T13:56:52.969Z,6.13
2022-08-03T14:01:55.799Z,4.35
2022-08-03T14:06:57.549Z,4.00
2022-08-03T14:12:07.449Z,5.43
2022-08-03T14:17:13.650Z,5.80
2022-08-03T14:22:18.001Z,4.38
2022-08-03T14:27:22.371Z,3.65
2022-08-03T14:32:24.138Z,4.85
2022-08-03T14:37:25.907Z,2.35
2022-08-03T14:42:27.730Z,3.30
2022-08-03T14:47:29.374Z,1.88
2022-08-03T14:52:31.475Z,4.30
2022-08-03T14:57:32.979Z,4.97
2022-08-03T15:02:34.637Z,6.03
2022-08-03T15:07:36.250Z,3.85
2022-08-03T15:12:37.803Z,5.45
2022-08-03T15:17:42.880Z,3.53
2022-08-03T15:22:44.569Z,2.13
2022-08-03T15:28:04.017Z,2.92
2022-08-03T15:33:06.257Z,4.15
2022-08-03T15:38:09.645Z,2.17
2022-08-03T15:43:12.009Z,3.45
2022-08-03T15:48:13.564Z,4.25
2022-08-03T15:53:15.582Z,2.45
2022-08-03T15:59:09.355Z,2.15
2022-08-03T16:03:39.110Z,2.50
2022-08-03T16:08:40.743Z,3.35
2022-08-03T16:14:12.373Z,3.13
2022-08-03T16:19:05.351Z,2.15
2022-08-03T16:24:07.381Z,3.90
2022-08-03T16:29:22.616Z,3.00
2022-08-03T16:34:25.541Z,3.10
2022-08-03T16:39:27.456Z,4.40
2022-08-03T16:44:30.895Z,5.30
2022-08-03T16:49:53.111Z,3.33
2022-08-03T16:54:54.922Z,2.55
2022-08-03T16:59:59.225Z,3.37
2022-08-03T17:05:00.890Z,6.53
2022-08-03T17:10:02.577Z,4.10
2022-08-03T17:15:10.638Z,3.85
2022-08-03T17:20:15.346Z,4.50
2022-08-03T17:25:22.199Z,3.78
2022-08-03T17:31:01.583Z,6.25
2022-08-03T17:36:05.664Z,7.23
2022-08-03T17:41:10.878Z,5.22
2022-08-03T17:46:13.958Z,4.95
2022-08-03T17:51:21.197Z,3.08
2022-08-03T17:56:44.913Z,4.55
2022-08-03T18:02:26.447Z,3.22
2022-08-03T18:07:45.072Z,3.25
2022-08-03T18:12:52.814Z,2.83
2022-08-03T18:18:02.359Z,5.28
2022-08-03T18:23:05.348Z,3.85
2022-08-03T18:28:11.726Z,3.40
2022-08-03T18:34:16.916Z,3.92
2022-08-03T18:43:46.141Z,2.63
2022-08-03T18:49:11.400Z,4.47
2022-08-03T18:54:58.237Z,4.30
2022-08-03T19:00:05.551Z,2.72
2022-08-03T19:05:12.545Z,3.35
2022-08-03T19:10:16.176Z,3.22
2022-08-03T19:15:36.779Z,3.80
2022-08-03T19:20:46.697Z,4.65
2022-08-03T19:25:48.757Z,3.33
2022-08-03T19:30:53.694Z,4.40
2022-08-03T19:35:57.327Z,4.97
2022-08-03T19:41:03.099Z,5.20
2022-08-03T19:46:11.642Z,3.80
2022-08-03T19:51:15.920Z,3.03
2022-08-03T19:56:23.508Z,2.50
2022-08-03T20:01:28.155Z,4.35
2022-08-03T20:06:29.874Z,2.60
2022-08-03T20:11:33.407Z,6.72
2022-08-03T20:16:47.482Z,8.80
2022-08-03T20:21:50.403Z,3.70
2022-08-03T20:26:55.009Z,6.78
2022-08-03T20:31:59.284Z,2.70
2022-08-03T20:37:01.081Z,5.35
2022-08-03T20:42:04.858Z,3.67
2022-08-03T20:47:13.320Z,8.00
2022-08-03T20:52:26.119Z,3.75
2022-08-03T20:57:28.073Z,4.32
2022-08-03T21:02:35.048Z,5.03
2022-08-03T21:08:04.441Z,2.65
2022-08-03T21:13:19.035Z,3.55
2022-08-03T21:18:23.639Z,3.60
2022-08-03T21:23:37.116Z,3.83
2022-08-03T21:28:49.982Z,4.00
2022-08-03T21:34:04.640Z,4.80
2022-08-03T21:39:08.957Z,6.47
2022-08-03T21:44:10.805Z,4.28
2022-08-03T21:50:05.120Z,4.97
2022-08-03T21:54:38.679Z,4.45
2022-08-03T21:59:45.690Z,3.53
2022-08-03T22:04:53.348Z,6.75
2022-08-03T22:10:01.105Z,6.95
2022-08-03T22:20:16.598Z,5.55
2022-08-03T22:25:18.405Z,3.45
2022-08-03T22:30:20.231Z,6.10
2022-08-03T22:35:25.461Z,10.07
2022-08-03T22:46:06.038Z,6.68
2022-08-03T22:50:51.157Z,4.88
2022-08-03T22:55:52.767Z,9.95
2022-08-03T23:01:14.728Z,5.25
2022-08-03T23:06:19.147Z,12.32
2022-08-03T23:11:23.223Z,6.23
2022-08-03T23:16:29.261Z,3.22
2022-08-03T23:21:53.180Z,5.18
2022-08-03T23:26:53.907Z,3.47
2022-08-03T23:31:56.637Z,6.35
2022-08-03T23:37:00.817Z,5.15
2022-08-03T23:42:03.435Z,3.83
2022-08-03T23:47:05.081Z,5.25
2022-08-03T23:52:15.637Z,5.45
2022-08-03T23:57:32.693Z,3.58
